sensor_id;sensor_type;location;lat;lon;timestamp;pressure;altitude;pressure_sealevel;temperature;humidity
40838;BME280;29632;49.168;9.848;2023-01-29T00:01:07;97830.03;;;5.97;47.68
40838;BME280;29632;49.168;9.848;2023-01-29T00:03:33;97837.84;;;5.95;48.08
40838;BME280;29632;49.168;9.848;2023-01-29T00:05:59;97836.13;;;5.96;47.63
40838;BME280;29632;49.168;9.848;2023-01-29T00:08:25;97834.44;;;5.95;47.90
40838;BME280;29632;49.168;9.848;2023-01-29T00:10:51;97833.63;;;5.94;47.85
40838;BME280;29632;49.168;9.848;2023-01-29T00:13:17;97824.25;;;5.92;47.98
40838;BME280;29632;49.168;9.848;2023-01-29T00:15:52;97822.63;;;5.91;47.67
40838;BME280;29632;49.168;9.848;2023-01-29T00:18:18;97827.78;;;5.91;48.11
40838;BME280;29632;49.168;9.848;2023-01-29T00:20:43;97823.53;;;5.90;47.74
40838;BME280;29632;49.168;9.848;2023-01-29T00:23:09;97825.28;;;5.89;47.69
40838;BME280;29632;49.168;9.848;2023-01-29T00:25:34;97826.19;;;5.88;48.06
40838;BME280;29632;49.168;9.848;2023-01-29T00:28:00;97818.44;;;5.88;47.83
40838;BME280;29632;49.168;9.848;2023-01-29T00:30:26;97821.03;;;5.88;47.79
40838;BME280;29632;49.168;9.848;2023-01-29T00:32:51;97821.13;;;5.86;47.81
40838;BME280;29632;49.168;9.848;2023-01-29T00:35:18;97824.53;;;5.87;47.73
40838;BME280;29632;49.168;9.848;2023-01-29T00:37:44;97834.03;;;5.86;47.97
40838;BME280;29632;49.168;9.848;2023-01-29T00:40:10;97831.53;;;5.85;47.97
40838;BME280;29632;49.168;9.848;2023-01-29T00:42:35;97824.63;;;5.85;47.74
40838;BME280;29632;49.168;9.848;2023-01-29T00:45:20;97820.38;;;5.84;48.23
40838;BME280;29632;49.168;9.848;2023-01-29T00:47:46;97818.69;;;5.83;47.95
40838;BME280;29632;49.168;9.848;2023-01-29T00:50:11;97825.63;;;5.83;48.10
40838;BME280;29632;49.168;9.848;2023-01-29T00:52:37;97825.72;;;5.81;47.79
40838;BME280;29632;49.168;9.848;2023-01-29T00:55:05;97826.56;;;5.82;48.08
40838;BME280;29632;49.168;9.848;2023-01-29T00:57:32;97819.81;;;5.79;47.69
40838;BME280;29632;49.168;9.848;2023-01-29T00:59:58;97822.41;;;5.79;47.76
40838;BME280;29632;49.168;9.848;2023-01-29T01:02:24;97813.81;;;5.79;47.75
40838;BME280;29632;49.168;9.848;2023-01-29T01:05:10;97819.91;;;5.78;48.14
40838;BME280;29632;49.168;9.848;2023-01-29T01:07:39;97814.72;;;5.78;47.74
40838;BME280;29632;49.168;9.848;2023-01-29T01:10:06;97811.31;;;5.77;48.04
40838;BME280;29632;49.168;9.848;2023-01-29T01:13:01;97811.41;;;5.76;47.99
40838;BME280;29632;49.168;9.848;2023-01-29T01:15:31;97811.41;;;5.76;48.04
40838;BME280;29632;49.168;9.848;2023-01-29T01:17:59;97808.97;;;5.73;48.10
40838;BME280;29632;49.168;9.848;2023-01-29T01:20:26;97818.41;;;5.74;47.95
40838;BME280;29632;49.168;9.848;2023-01-29T01:22:53;97815.91;;;5.72;47.80
40838;BME280;29632;49.168;9.848;2023-01-29T01:25:19;97811.66;;;5.71;47.61
40838;BME280;29632;49.168;9.848;2023-01-29T01:27:45;97808.25;;;5.71;47.64
40838;BME280;29632;49.168;9.848;2023-01-29T01:30:13;97804.84;;;5.70;47.72
40838;BME280;29632;49.168;9.848;2023-01-29T01:32:39;97805.75;;;5.69;47.77
40838;BME280;29632;49.168;9.848;2023-01-29T01:35:06;97804.09;;;5.68;47.57
40838;BME280;29632;49.168;9.848;2023-01-29T01:37:32;97810.19;;;5.67;47.72
40838;BME280;29632;49.168;9.848;2023-01-29T01:39:57;97811.94;;;5.66;47.67
40838;BME280;29632;49.168;9.848;2023-01-29T01:42:27;97810.25;;;5.65;47.58
40838;BME280;29632;49.168;9.848;2023-01-29T01:45:03;97804.28;;;5.65;47.62
40838;BME280;29632;49.168;9.848;2023-01-29T01:47:41;97810.34;;;5.64;47.92
40838;BME280;29632;49.168;9.848;2023-01-29T01:50:11;97807.75;;;5.64;47.88
40838;BME280;29632;49.168;9.848;2023-01-29T01:52:41;97813.88;;;5.63;47.82
40838;BME280;29632;49.168;9.848;2023-01-29T01:55:11;97813.78;;;5.64;47.60
40838;BME280;29632;49.168;9.848;2023-01-29T01:57:37;97823.28;;;5.64;47.82
40838;BME280;29632;49.168;9.848;2023-01-29T02:00:09;97818.19;;;5.62;47.95
40838;BME280;29632;49.168;9.848;2023-01-29T02:02:38;97813.94;;;5.61;48.14
40838;BME280;29632;49.168;9.848;2023-01-29T02:05:23;97812.28;;;5.60;47.79
40838;BME280;29632;49.168;9.848;2023-01-29T02:08:08;97808.88;;;5.60;47.51
40838;BME280;29632;49.168;9.848;2023-01-29T02:10:53;97817.53;;;5.59;47.45
40838;BME280;29632;49.168;9.848;2023-01-29T02:13:20;97817.59;;;5.57;47.68
40838;BME280;29632;49.168;9.848;2023-01-29T02:15:45;97821.06;;;5.58;47.95
40838;BME280;29632;49.168;9.848;2023-01-29T02:18:18;97814.13;;;5.58;48.02
40838;BME280;29632;49.168;9.848;2023-01-29T02:20:56;97814.13;;;5.58;47.73
40838;BME280;29632;49.168;9.848;2023-01-29T02:26:18;97809.13;;;5.55;47.63
40838;BME280;29632;49.168;9.848;2023-01-29T02:31:31;97819.44;;;5.55;47.88
40838;BME280;29632;49.168;9.848;2023-01-29T02:34:28;97806.63;;;5.54;47.87
40838;BME280;29632;49.168;9.848;2023-01-29T02:37:08;97815.31;;;5.53;47.85
40838;BME280;29632;49.168;9.848;2023-01-29T02:39:46;97810.31;;;5.49;47.71
40838;BME280;29632;49.168;9.848;2023-01-29T02:42:34;97796.00;;;5.44;47.86
40838;BME280;29632;49.168;9.848;2023-01-29T02:45:14;97797.91;;;5.40;47.67
40838;BME280;29632;49.168;9.848;2023-01-29T02:47:56;97798.00;;;5.39;47.80
40838;BME280;29632;49.168;9.848;2023-01-29T02:53:12;97787.75;;;5.37;48.02
40838;BME280;29632;49.168;9.848;2023-01-29T02:55:51;97792.91;;;5.37;48.02
40838;BME280;29632;49.168;9.848;2023-01-29T03:00:48;97793.81;;;5.36;48.12
40838;BME280;29632;49.168;9.848;2023-01-29T03:03:22;97792.09;;;5.37;48.06
40838;BME280;29632;49.168;9.848;2023-01-29T03:08:22;97803.25;;;5.37;47.91
40838;BME280;29632;49.168;9.848;2023-01-29T03:10:55;97799.00;;;5.36;47.69
40838;BME280;29632;49.168;9.848;2023-01-29T03:13:33;97806.75;;;5.36;47.50
40838;BME280;29632;49.168;9.848;2023-01-29T03:16:25;97804.25;;;5.35;47.96
40838;BME280;29632;49.168;9.848;2023-01-29T03:18:53;97801.66;;;5.35;47.60
40838;BME280;29632;49.168;9.848;2023-01-29T03:21:31;97800.75;;;5.36;47.85
40838;BME280;29632;49.168;9.848;2023-01-29T03:24:20;97799.94;;;5.35;47.63
40838;BME280;29632;49.168;9.848;2023-01-29T03:27:07;97803.34;;;5.36;48.08
40838;BME280;29632;49.168;9.848;2023-01-29T03:29:53;97800.84;;;5.34;47.77
40838;BME280;29632;49.168;9.848;2023-01-29T03:32:38;97809.41;;;5.35;47.59
40838;BME280;29632;49.168;9.848;2023-01-29T03:35:05;97801.66;;;5.35;48.01
40838;BME280;29632;49.168;9.848;2023-01-29T03:37:42;97805.09;;;5.35;47.63
40838;BME280;29632;49.168;9.848;2023-01-29T03:40:11;97803.34;;;5.36;47.59
40838;BME280;29632;49.168;9.848;2023-01-29T03:47:46;97808.50;;;5.36;47.79
40838;BME280;29632;49.168;9.848;2023-01-29T03:50:31;97806.81;;;5.35;47.72
40838;BME280;29632;49.168;9.848;2023-01-29T03:55:37;97802.59;;;5.34;47.49
40838;BME280;29632;49.168;9.848;2023-01-29T04:03:28;97798.53;;;5.29;48.03
40838;BME280;29632;49.168;9.848;2023-01-29T04:06:26;97795.81;;;5.31;48.05
40838;BME280;29632;49.168;9.848;2023-01-29T04:11:28;97806.28;;;5.29;47.99
40838;BME280;29632;49.168;9.848;2023-01-29T04:13:53;97808.94;;;5.28;47.77
40838;BME280;29632;49.168;9.848;2023-01-29T04:16:23;97809.75;;;5.28;47.74
40838;BME280;29632;49.168;9.848;2023-01-29T04:18:49;97811.53;;;5.28;47.77
40838;BME280;29632;49.168;9.848;2023-01-29T04:21:16;97825.25;;;5.28;47.92
40838;BME280;29632;49.168;9.848;2023-01-29T04:23:42;97823.59;;;5.27;47.62
40838;BME280;29632;49.168;9.848;2023-01-29T04:26:28;97818.41;;;5.27;47.72
40838;BME280;29632;49.168;9.848;2023-01-29T04:29:21;97808.09;;;5.27;47.34
40838;BME280;29632;49.168;9.848;2023-01-29T04:31:59;97811.59;;;5.26;47.93
40838;BME280;29632;49.168;9.848;2023-01-29T04:34:37;97818.53;;;5.26;47.76
40838;BME280;29632;49.168;9.848;2023-01-29T04:37:16;97823.69;;;5.26;47.40
40838;BME280;29632;49.168;9.848;2023-01-29T04:39:48;97819.44;;;5.25;47.83
40838;BME280;29632;49.168;9.848;2023-01-29T04:42:28;97826.38;;;5.24;47.71
40838;BME280;29632;49.168;9.848;2023-01-29T04:50:22;97830.69;;;5.24;47.74
40838;BME280;29632;49.168;9.848;2023-01-29T04:53:07;97839.34;;;5.23;47.78
40838;BME280;29632;49.168;9.848;2023-01-29T04:58:41;97820.69;;;5.18;47.78
40838;BME280;29632;49.168;9.848;2023-01-29T05:01:12;97822.47;;;5.17;47.80
40838;BME280;29632;49.168;9.848;2023-01-29T05:03:39;97818.13;;;5.18;47.74
40838;BME280;29632;49.168;9.848;2023-01-29T05:06:08;97812.88;;;5.19;47.74
40838;BME280;29632;49.168;9.848;2023-01-29T05:08:35;97812.00;;;5.19;47.93
40838;BME280;29632;49.168;9.848;2023-01-29T05:11:02;97800.84;;;5.18;47.48
40838;BME280;29632;49.168;9.848;2023-01-29T05:13:28;97809.44;;;5.19;47.74
40838;BME280;29632;49.168;9.848;2023-01-29T05:16:07;97815.44;;;5.19;47.95
40838;BME280;29632;49.168;9.848;2023-01-29T05:18:34;97813.78;;;5.18;47.33
40838;BME280;29632;49.168;9.848;2023-01-29T05:21:03;97817.19;;;5.19;47.33
40838;BME280;29632;49.168;9.848;2023-01-29T05:23:30;97819.75;;;5.19;47.38
40838;BME280;29632;49.168;9.848;2023-01-29T05:25:56;97811.09;;;5.20;47.51
40838;BME280;29632;49.168;9.848;2023-01-29T05:28:22;97809.34;;;5.20;47.48
40838;BME280;29632;49.168;9.848;2023-01-29T05:30:51;97809.34;;;5.20;47.38
40838;BME280;29632;49.168;9.848;2023-01-29T05:33:26;97805.94;;;5.20;47.92
40838;BME280;29632;49.168;9.848;2023-01-29T05:35:53;97805.94;;;5.20;47.64
40838;BME280;29632;49.168;9.848;2023-01-29T05:38:19;97798.28;;;5.18;47.66
40838;BME280;29632;49.168;9.848;2023-01-29T05:40:46;97785.44;;;5.17;47.45
40838;BME280;29632;49.168;9.848;2023-01-29T05:43:19;97774.22;;;5.18;47.45
40838;BME280;29632;49.168;9.848;2023-01-29T05:45:56;97772.44;;;5.18;47.46
40838;BME280;29632;49.168;9.848;2023-01-29T05:48:23;97766.47;;;5.18;47.75
40838;BME280;29632;49.168;9.848;2023-01-29T05:50:49;97765.53;;;5.19;47.80
40838;BME280;29632;49.168;9.848;2023-01-29T05:53:15;97770.81;;;5.17;47.79
40838;BME280;29632;49.168;9.848;2023-01-29T05:55:44;97779.38;;;5.18;47.73
40838;BME280;29632;49.168;9.848;2023-01-29T05:58:10;97774.28;;;5.16;48.06
40838;BME280;29632;49.168;9.848;2023-01-29T06:00:36;97775.13;;;5.17;47.72
40838;BME280;29632;49.168;9.848;2023-01-29T06:03:01;97776.06;;;5.16;47.89
40838;BME280;29632;49.168;9.848;2023-01-29T06:05:29;97772.63;;;5.15;47.95
40838;BME280;29632;49.168;9.848;2023-01-29T06:07:55;97781.97;;;5.18;47.71
40838;BME280;29632;49.168;9.848;2023-01-29T06:10:21;97779.47;;;5.16;47.71
40838;BME280;29632;49.168;9.848;2023-01-29T06:12:46;97774.28;;;5.16;47.34
40838;BME280;29632;49.168;9.848;2023-01-29T06:15:12;97776.88;;;5.16;47.71
40838;BME280;29632;49.168;9.848;2023-01-29T06:17:40;97778.63;;;5.16;47.69
40838;BME280;29632;49.168;9.848;2023-01-29T06:20:07;97770.88;;;5.16;47.80
40838;BME280;29632;49.168;9.848;2023-01-29T06:22:33;97764.22;;;5.11;47.37
40838;BME280;29632;49.168;9.848;2023-01-29T06:24:58;97768.06;;;5.04;47.32
40838;BME280;29632;49.168;9.848;2023-01-29T06:27:24;97784.72;;;4.99;47.57
40838;BME280;29632;49.168;9.848;2023-01-29T06:29:49;97784.81;;;4.97;47.72
40838;BME280;29632;49.168;9.848;2023-01-29T06:32:15;97781.31;;;4.98;47.66
40838;BME280;29632;49.168;9.848;2023-01-29T06:34:41;97771.00;;;4.98;47.73
40838;BME280;29632;49.168;9.848;2023-01-29T06:37:06;97774.41;;;4.99;47.93
40838;BME280;29632;49.168;9.848;2023-01-29T06:39:33;97773.50;;;5.00;47.84
40838;BME280;29632;49.168;9.848;2023-01-29T06:41:58;97767.47;;;4.99;47.93
40838;BME280;29632;49.168;9.848;2023-01-29T06:44:24;97769.22;;;4.99;47.58
40838;BME280;29632;49.168;9.848;2023-01-29T06:46:50;97774.56;;;4.96;47.52
40838;BME280;29632;49.168;9.848;2023-01-29T06:49:15;97774.63;;;4.94;48.12
40838;BME280;29632;49.168;9.848;2023-01-29T06:51:41;97779.72;;;4.96;48.03
40838;BME280;29632;49.168;9.848;2023-01-29T06:54:08;97779.63;;;4.97;47.59
40838;BME280;29632;49.168;9.848;2023-01-29T06:56:34;97786.66;;;4.95;47.68
40838;BME280;29632;49.168;9.848;2023-01-29T06:59:00;97787.53;;;4.94;47.79
40838;BME280;29632;49.168;9.848;2023-01-29T07:01:25;97797.88;;;4.94;47.55
40838;BME280;29632;49.168;9.848;2023-01-29T07:03:51;97801.41;;;4.93;47.55
40838;BME280;29632;49.168;9.848;2023-01-29T07:06:17;97803.91;;;4.95;47.96
40838;BME280;29632;49.168;9.848;2023-01-29T07:08:43;97812.38;;;4.97;48.01
40838;BME280;29632;49.168;9.848;2023-01-29T07:11:09;97807.13;;;4.98;47.39
40838;BME280;29632;49.168;9.848;2023-01-29T07:13:34;97803.63;;;4.99;47.46
40838;BME280;29632;49.168;9.848;2023-01-29T07:16:01;97811.22;;;5.02;47.88
40838;BME280;29632;49.168;9.848;2023-01-29T07:18:27;97799.13;;;5.03;47.77
40838;BME280;29632;49.168;9.848;2023-01-29T07:20:53;97807.53;;;5.06;47.74
40838;BME280;29632;49.168;9.848;2023-01-29T07:23:19;97804.03;;;5.07;47.62
40838;BME280;29632;49.168;9.848;2023-01-29T07:25:45;97815.13;;;5.09;47.65
40838;BME280;29632;49.168;9.848;2023-01-29T07:28:15;97818.53;;;5.10;47.53
40838;BME280;29632;49.168;9.848;2023-01-29T07:30:41;97822.69;;;5.13;47.43
40838;BME280;29632;49.168;9.848;2023-01-29T07:33:08;97817.44;;;5.14;47.18
40838;BME280;29632;49.168;9.848;2023-01-29T07:35:41;97815.78;;;5.13;47.97
40838;BME280;29632;49.168;9.848;2023-01-29T07:38:08;97819.19;;;5.14;47.73
40838;BME280;29632;49.168;9.848;2023-01-29T07:40:34;97815.63;;;5.16;47.75
40838;BME280;29632;49.168;9.848;2023-01-29T07:43:01;97819.75;;;5.19;47.71
40838;BME280;29632;49.168;9.848;2023-01-29T07:45:28;97824.03;;;5.20;47.42
40838;BME280;29632;49.168;9.848;2023-01-29T07:47:54;97823.13;;;5.21;47.57
40838;BME280;29632;49.168;9.848;2023-01-29T07:50:21;97821.28;;;5.23;47.24
40838;BME280;29632;49.168;9.848;2023-01-29T07:52:47;97815.94;;;5.26;47.31
40838;BME280;29632;49.168;9.848;2023-01-29T07:55:13;97816.03;;;5.24;47.61
40838;BME280;29632;49.168;9.848;2023-01-29T07:57:38;97822.03;;;5.25;47.35
40838;BME280;29632;49.168;9.848;2023-01-29T08:00:04;97827.94;;;5.27;47.33
40838;BME280;29632;49.168;9.848;2023-01-29T08:02:30;97830.44;;;5.28;47.47
40838;BME280;29632;49.168;9.848;2023-01-29T08:04:56;97832.94;;;5.30;47.40
40838;BME280;29632;49.168;9.848;2023-01-29T08:07:21;97830.34;;;5.30;47.16
40838;BME280;29632;49.168;9.848;2023-01-29T08:09:47;97837.16;;;5.31;47.27
40838;BME280;29632;49.168;9.848;2023-01-29T08:12:13;97835.50;;;5.30;47.63
40838;BME280;29632;49.168;9.848;2023-01-29T08:14:39;97839.00;;;5.29;47.26
40838;BME280;29632;49.168;9.848;2023-01-29T08:17:04;97843.44;;;5.27;47.44
40838;BME280;29632;49.168;9.848;2023-01-29T08:19:30;97852.13;;;5.26;47.54
40838;BME280;29632;49.168;9.848;2023-01-29T08:21:56;97839.28;;;5.24;47.42
40838;BME280;29632;49.168;9.848;2023-01-29T08:24:21;97844.53;;;5.23;47.40
40838;BME280;29632;49.168;9.848;2023-01-29T08:26:47;97848.00;;;5.22;47.90
40838;BME280;29632;49.168;9.848;2023-01-29T08:29:12;97846.44;;;5.19;47.83
40838;BME280;29632;49.168;9.848;2023-01-29T08:31:38;97853.53;;;5.16;47.64
40838;BME280;29632;49.168;9.848;2023-01-29T08:34:04;97850.16;;;5.14;47.97
40838;BME280;29632;49.168;9.848;2023-01-29T08:36:29;97846.75;;;5.13;48.06
40838;BME280;29632;49.168;9.848;2023-01-29T08:38:55;97851.94;;;5.13;47.62
40838;BME280;29632;49.168;9.848;2023-01-29T08:41:21;97847.44;;;5.17;47.90
40838;BME280;29632;49.168;9.848;2023-01-29T08:43:46;97846.44;;;5.19;47.72
40838;BME280;29632;49.168;9.848;2023-01-29T08:46:12;97852.34;;;5.21;47.71
40838;BME280;29632;49.168;9.848;2023-01-29T08:48:37;97843.59;;;5.24;47.78
40838;BME280;29632;49.168;9.848;2023-01-29T08:51:03;97854.69;;;5.26;47.80
40838;BME280;29632;49.168;9.848;2023-01-29T08:53:29;97855.53;;;5.26;48.07
40838;BME280;29632;49.168;9.848;2023-01-29T08:55:55;97855.69;;;5.23;48.06
40838;BME280;29632;49.168;9.848;2023-01-29T08:58:21;97860.94;;;5.22;47.67
40838;BME280;29632;49.168;9.848;2023-01-29T09:00:46;97853.19;;;5.22;47.85
40838;BME280;29632;49.168;9.848;2023-01-29T09:03:12;97853.91;;;5.24;47.73
40838;BME280;29632;49.168;9.848;2023-01-29T09:05:38;97861.59;;;5.25;47.76
40838;BME280;29632;49.168;9.848;2023-01-29T09:08:05;97865.84;;;5.26;47.81
40838;BME280;29632;49.168;9.848;2023-01-29T09:10:31;97856.19;;;5.30;47.53
40838;BME280;29632;49.168;9.848;2023-01-29T09:12:57;97859.66;;;5.29;47.78
40838;BME280;29632;49.168;9.848;2023-01-29T09:15:23;97856.44;;;5.25;47.40
40838;BME280;29632;49.168;9.848;2023-01-29T09:17:49;97863.28;;;5.26;47.90
40838;BME280;29632;49.168;9.848;2023-01-29T09:20:15;97874.44;;;5.27;47.89
40838;BME280;29632;49.168;9.848;2023-01-29T09:22:41;97861.59;;;5.25;47.99
40838;BME280;29632;49.168;9.848;2023-01-29T09:25:07;97863.28;;;5.26;47.91
40838;BME280;29632;49.168;9.848;2023-01-29T09:27:33;97863.34;;;5.25;47.97
40838;BME280;29632;49.168;9.848;2023-01-29T09:29:59;97855.03;;;5.20;47.54
40838;BME280;29632;49.168;9.848;2023-01-29T09:32:24;97849.09;;;5.18;48.07
40838;BME280;29632;49.168;9.848;2023-01-29T09:34:50;97855.91;;;5.19;47.85
40838;BME280;29632;49.168;9.848;2023-01-29T09:37:16;97856.69;;;5.21;47.87
40838;BME280;29632;49.168;9.848;2023-01-29T09:39:50;97845.59;;;5.19;47.98
40838;BME280;29632;49.168;9.848;2023-01-29T09:42:25;97844.84;;;5.17;47.69
40838;BME280;29632;49.168;9.848;2023-01-29T09:45:10;97834.59;;;5.15;47.67
40838;BME280;29632;49.168;9.848;2023-01-29T09:47:37;97833.03;;;5.13;47.96
40838;BME280;29632;49.168;9.848;2023-01-29T09:52:35;97811.03;;;5.05;47.95
40838;BME280;29632;49.168;9.848;2023-01-29T09:55:25;97816.22;;;5.05;47.83
40838;BME280;29632;49.168;9.848;2023-01-29T09:57:59;97811.13;;;5.04;47.80
40838;BME280;29632;49.168;9.848;2023-01-29T10:00:32;97813.03;;;5.00;47.58
40838;BME280;29632;49.168;9.848;2023-01-29T10:05:42;97804.97;;;4.90;47.59
40838;BME280;29632;49.168;9.848;2023-01-29T10:11:09;97804.81;;;4.78;48.05
40838;BME280;29632;49.168;9.848;2023-01-29T10:16:30;97817.13;;;4.72;47.65
40838;BME280;29632;49.168;9.848;2023-01-29T10:19:17;97819.53;;;4.76;47.47
40838;BME280;29632;49.168;9.848;2023-01-29T10:27:00;97813.56;;;4.91;47.26
40838;BME280;29632;49.168;9.848;2023-01-29T10:29:27;97820.22;;;4.95;47.71
40838;BME280;29632;49.168;9.848;2023-01-29T10:31:56;97810.31;;;5.03;47.41
40838;BME280;29632;49.168;9.848;2023-01-29T10:34:52;97818.63;;;5.08;47.30
40838;BME280;29632;49.168;9.848;2023-01-29T10:37:27;97807.94;;;5.15;47.16
40838;BME280;29632;49.168;9.848;2023-01-29T10:39:57;97812.66;;;5.22;47.02
40838;BME280;29632;49.168;9.848;2023-01-29T10:42:34;97822.91;;;5.40;47.26
40838;BME280;29632;49.168;9.848;2023-01-29T10:50:48;97819.81;;;5.79;46.84
40838;BME280;29632;49.168;9.848;2023-01-29T10:56:36;97816.38;;;6.09;46.55
40838;BME280;29632;49.168;9.848;2023-01-29T10:59:38;97814.91;;;6.19;46.55
40838;BME280;29632;49.168;9.848;2023-01-29T11:02:16;97805.94;;;6.25;46.60
40838;BME280;29632;49.168;9.848;2023-01-29T11:04:43;97798.56;;;6.33;46.22
40838;BME280;29632;49.168;9.848;2023-01-29T11:07:09;97793.88;;;6.40;46.47
40838;BME280;29632;49.168;9.848;2023-01-29T11:09:41;97791.28;;;6.40;46.61
40838;BME280;29632;49.168;9.848;2023-01-29T11:12:12;97779.25;;;6.39;46.51
40838;BME280;29632;49.168;9.848;2023-01-29T11:14:45;97769.72;;;6.39;46.72
40838;BME280;29632;49.168;9.848;2023-01-29T11:17:16;97763.72;;;6.39;46.20
40838;BME280;29632;49.168;9.848;2023-01-29T11:19:46;97759.66;;;6.35;46.82
40838;BME280;29632;49.168;9.848;2023-01-29T11:22:16;97752.28;;;6.43;46.92
40838;BME280;29632;49.168;9.848;2023-01-29T11:24:42;97754.56;;;6.48;46.57
40838;BME280;29632;49.168;9.848;2023-01-29T11:27:22;97747.34;;;6.53;46.57
40838;BME280;29632;49.168;9.848;2023-01-29T11:29:48;97752.34;;;6.56;46.43
40838;BME280;29632;49.168;9.848;2023-01-29T11:32:24;97751.22;;;6.60;46.79
40838;BME280;29632;49.168;9.848;2023-01-29T11:37:42;97747.91;;;6.58;46.95
40838;BME280;29632;49.168;9.848;2023-01-29T11:42:43;97738.75;;;6.52;47.15
40838;BME280;29632;49.168;9.848;2023-01-29T11:45:25;97724.88;;;6.53;46.96
40838;BME280;29632;49.168;9.848;2023-01-29T11:47:53;97722.00;;;6.58;46.75
40838;BME280;29632;49.168;9.848;2023-01-29T11:50:25;97716.19;;;6.54;46.84
40838;BME280;29632;49.168;9.848;2023-01-29T11:52:51;97720.16;;;6.60;46.39
40838;BME280;29632;49.168;9.848;2023-01-29T11:55:29;97717.28;;;6.65;46.20
40838;BME280;29632;49.168;9.848;2023-01-29T11:58:11;97718.38;;;6.75;46.85
40838;BME280;29632;49.168;9.848;2023-01-29T12:00:38;97711.97;;;6.80;46.65
40838;BME280;29632;49.168;9.848;2023-01-29T12:05:54;97713.78;;;6.93;46.36
40838;BME280;29632;49.168;9.848;2023-01-29T12:08:20;97703.84;;;6.99;46.02
40838;BME280;29632;49.168;9.848;2023-01-29T12:10:47;97701.69;;;7.06;46.71
40838;BME280;29632;49.168;9.848;2023-01-29T12:15:44;97690.19;;;7.10;46.65
40838;BME280;29632;49.168;9.848;2023-01-29T12:26:09;97657.91;;;7.42;46.51
40838;BME280;29632;49.168;9.848;2023-01-29T12:28:40;97657.28;;;7.51;45.91
40838;BME280;29632;49.168;9.848;2023-01-29T12:31:31;97654.09;;;7.60;46.68
40838;BME280;29632;49.168;9.848;2023-01-29T12:36:39;97644.44;;;7.75;46.61
40838;BME280;29632;49.168;9.848;2023-01-29T12:39:15;97633.84;;;7.78;45.86
40838;BME280;29632;49.168;9.848;2023-01-29T12:41:56;97639.03;;;7.78;46.02
40838;BME280;29632;49.168;9.848;2023-01-29T12:46:59;97622.97;;;7.73;46.10
40838;BME280;29632;49.168;9.848;2023-01-29T12:49:32;97625.84;;;7.68;45.89
40838;BME280;29632;49.168;9.848;2023-01-29T12:54:38;97618.09;;;7.68;46.16
40838;BME280;29632;49.168;9.848;2023-01-29T12:57:17;97621.53;;;7.69;46.71
40838;BME280;29632;49.168;9.848;2023-01-29T12:59:48;97616.22;;;7.70;46.72
40838;BME280;29632;49.168;9.848;2023-01-29T13:02:36;97614.13;;;7.75;46.45
40838;BME280;29632;49.168;9.848;2023-01-29T13:05:19;97610.50;;;7.78;45.80
40838;BME280;29632;49.168;9.848;2023-01-29T13:07:51;97608.63;;;7.80;46.25
40838;BME280;29632;49.168;9.848;2023-01-29T13:10:20;97609.47;;;7.81;46.44
40838;BME280;29632;49.168;9.848;2023-01-29T13:12:56;97607.47;;;7.84;46.35
40838;BME280;29632;49.168;9.848;2023-01-29T13:15:35;97607.06;;;7.90;45.88
40838;BME280;29632;49.168;9.848;2023-01-29T13:18:35;97604.16;;;7.95;46.07
40838;BME280;29632;49.168;9.848;2023-01-29T13:21:02;97599.34;;;8.02;46.13
40838;BME280;29632;49.168;9.848;2023-01-29T13:23:47;97605.75;;;8.09;46.32
40838;BME280;29632;49.168;9.848;2023-01-29T13:26:16;97598.72;;;8.11;46.43
40838;BME280;29632;49.168;9.848;2023-01-29T13:28:43;97604.53;;;8.15;46.33
40838;BME280;29632;49.168;9.848;2023-01-29T13:31:31;97598.16;;;8.19;46.41
40838;BME280;29632;49.168;9.848;2023-01-29T13:34:28;97602.44;;;8.20;46.38
40838;BME280;29632;49.168;9.848;2023-01-29T13:36:57;97604.28;;;8.18;46.45
40838;BME280;29632;49.168;9.848;2023-01-29T13:40:06;97599.09;;;8.18;46.21
40838;BME280;29632;49.168;9.848;2023-01-29T13:42:23;97600.66;;;8.20;46.65
40838;BME280;29632;49.168;9.848;2023-01-29T13:44:52;97608.44;;;8.20;46.49
40838;BME280;29632;49.168;9.848;2023-01-29T13:47:29;97615.31;;;8.21;46.08
40838;BME280;29632;49.168;9.848;2023-01-29T13:50:08;97612.56;;;8.23;46.45
40838;BME280;29632;49.168;9.848;2023-01-29T13:52:40;97615.31;;;8.21;46.56
40838;BME280;29632;49.168;9.848;2023-01-29T13:57:47;97603.16;;;8.22;46.66
40838;BME280;29632;49.168;9.848;2023-01-29T14:02:45;97598.06;;;8.20;46.21
40838;BME280;29632;49.168;9.848;2023-01-29T14:08:05;97593.28;;;8.14;46.44
40838;BME280;29632;49.168;9.848;2023-01-29T14:13:43;97587.28;;;8.13;46.69
40838;BME280;29632;49.168;9.848;2023-01-29T14:18:35;97575.13;;;8.14;46.36
40838;BME280;29632;49.168;9.848;2023-01-29T14:21:05;97576.47;;;8.20;46.51
40838;BME280;29632;49.168;9.848;2023-01-29T14:26:04;97562.28;;;8.37;46.33
40838;BME280;29632;49.168;9.848;2023-01-29T14:28:32;97564.16;;;8.47;46.05
40838;BME280;29632;49.168;9.848;2023-01-29T14:30:58;97566.06;;;8.57;46.09
40838;BME280;29632;49.168;9.848;2023-01-29T14:33:34;97567.03;;;8.67;45.40
40838;BME280;29632;49.168;9.848;2023-01-29T14:36:07;97579.06;;;8.68;46.30
40838;BME280;29632;49.168;9.848;2023-01-29T14:38:34;97579.66;;;8.72;46.40
40838;BME280;29632;49.168;9.848;2023-01-29T14:41:06;97575.34;;;8.72;46.34
40838;BME280;29632;49.168;9.848;2023-01-29T14:43:33;97576.38;;;8.69;46.35
40838;BME280;29632;49.168;9.848;2023-01-29T14:48:59;97574.84;;;8.67;46.36
40838;BME280;29632;49.168;9.848;2023-01-29T14:51:25;97573.28;;;8.64;45.59
40838;BME280;29632;49.168;9.848;2023-01-29T14:54:00;97569.84;;;8.64;46.54
40838;BME280;29632;49.168;9.848;2023-01-29T14:56:32;97576.94;;;8.62;46.65
40838;BME280;29632;49.168;9.848;2023-01-29T14:59:19;97577.16;;;8.59;46.14
40838;BME280;29632;49.168;9.848;2023-01-29T15:01:51;97582.78;;;8.53;46.78
40838;BME280;29632;49.168;9.848;2023-01-29T15:07:02;97585.72;;;8.48;46.03
40838;BME280;29632;49.168;9.848;2023-01-29T15:09:38;97583.13;;;8.48;46.68
40838;BME280;29632;49.168;9.848;2023-01-29T15:12:17;97586.13;;;8.42;46.12
40838;BME280;29632;49.168;9.848;2023-01-29T15:15:06;97584.81;;;8.36;46.22
40838;BME280;29632;49.168;9.848;2023-01-29T15:17:56;97576.31;;;8.34;45.97
40838;BME280;29632;49.168;9.848;2023-01-29T15:22:55;97578.84;;;8.23;45.95